Time;durP1;ratioP1;P1;durP2;ratioP2;P2;SDS_P1;SDS_P2;PMS_P1;PMS_P2;Temp;Humidity;BMP_temperature;BMP_pressure;BME280_temperature;BME280_humidity;BME280_pressure;Samples;Min_cycle;Max_cycle;Signal;HPM_P1;HPM_P2
2023/12/11 00:01:13;;;;;;;6.30;1.40;;;;;;;7.73;100.00;95930.97;4945224;28;20058;-69
2023/12/11 00:03:39;;;;;;;3.38;1.35;;;;;;;7.69;100.00;95929.34;4915158;28;20602;-70
2023/12/11 00:06:05;;;;;;;9.15;1.40;;;;;;;7.66;100.00;95933.59;4940807;28;20070;-69
2023/12/11 00:08:32;;;;;;;2.80;1.20;;;;;;;7.68;100.00;95935.97;4941769;28;20074;-68
2023/12/11 00:10:57;;;;;;;6.22;1.30;;;;;;;7.72;100.00;95940.28;4926915;28;20075;-68
2023/12/11 00:13:23;;;;;;;6.05;1.50;;;;;;;7.73;100.00;95927.47;4923131;28;21027;-69
2023/12/11 00:15:49;;;;;;;4.72;1.27;;;;;;;7.73;100.00;95925.53;4941846;28;20039;-69
2023/12/11 00:18:14;;;;;;;5.50;1.20;;;;;;;7.75;100.00;95925.16;4936444;28;20055;-69
2023/12/11 00:20:39;;;;;;;4.45;1.40;;;;;;;7.83;100.00;95929.56;4940741;28;20046;-69
2023/12/11 00:23:06;;;;;;;6.13;1.50;;;;;;;7.82;100.00;95920.59;4928850;28;20043;-70
2023/12/11 00:25:31;;;;;;;6.20;1.52;;;;;;;7.80;100.00;95914.72;4929441;28;20138;-69
2023/12/11 00:27:57;;;;;;;3.45;1.15;;;;;;;7.83;100.00;95924.91;4948826;28;20461;-70
2023/12/11 00:30:22;;;;;;;4.60;1.13;;;;;;;7.88;100.00;95928.47;4946861;28;20073;-69
2023/12/11 00:32:48;;;;;;;4.40;1.30;;;;;;;7.81;100.00;95927.22;4936182;28;20039;-69
2023/12/11 00:35:14;;;;;;;2.42;1.20;;;;;;;7.79;100.00;95926.78;4922904;28;20270;-69
2023/12/11 00:37:40;;;;;;;4.55;1.38;;;;;;;7.92;100.00;95932.00;4946605;28;20047;-69
2023/12/11 00:40:06;;;;;;;5.43;1.38;;;;;;;7.84;100.00;95934.63;4938911;28;20057;-71
2023/12/11 00:42:31;;;;;;;4.82;1.60;;;;;;;7.94;100.00;95911.44;4941501;28;20054;-72
2023/12/11 00:44:57;;;;;;;3.40;1.30;;;;;;;7.91;100.00;95922.28;4942661;28;20089;-70
2023/12/11 00:47:22;;;;;;;4.60;1.38;;;;;;;7.98;100.00;95919.66;4927922;28;20515;-70
2023/12/11 00:49:48;;;;;;;5.47;1.33;;;;;;;7.93;100.00;95926.19;4928758;29;20047;-71
2023/12/11 00:52:14;;;;;;;5.72;1.27;;;;;;;8.02;100.00;95934.13;4910669;29;20047;-71
2023/12/11 00:54:39;;;;;;;6.10;1.33;;;;;;;8.13;100.00;95937.00;4933480;28;20078;-71
2023/12/11 00:57:04;;;;;;;3.85;1.20;;;;;;;8.10;100.00;95935.78;4928772;28;20699;-71
2023/12/11 00:59:30;;;;;;;5.82;1.20;;;;;;;7.96;100.00;95930.13;4957652;28;20054;-72
2023/12/11 01:01:55;;;;;;;6.20;1.58;;;;;;;7.79;100.00;95926.00;4949033;28;20575;-72
2023/12/11 01:04:20;;;;;;;4.97;1.20;;;;;;;7.84;100.00;95921.00;4918663;28;20681;-70
2023/12/11 01:06:46;;;;;;;6.45;1.38;;;;;;;7.83;100.00;95932.28;4948563;28;20054;-70
2023/12/11 01:09:12;;;;;;;9.45;1.85;;;;;;;7.89;100.00;95927.31;4944874;28;20051;-70
2023/12/11 01:11:39;;;;;;;5.55;1.88;;;;;;;7.64;100.00;95933.19;4932838;28;20055;-71
2023/12/11 01:14:04;;;;;;;15.95;6.20;;;;;;;7.52;100.00;95923.25;4932472;28;20104;-72
2023/12/11 01:16:29;;;;;;;5.95;1.45;;;;;;;7.58;100.00;95921.81;4950368;28;20054;-71
2023/12/11 01:18:55;;;;;;;5.95;1.35;;;;;;;7.66;100.00;95920.75;4949485;28;20058;-71
2023/12/11 01:21:20;;;;;;;6.97;2.08;;;;;;;7.56;100.00;95929.56;4944899;28;20039;-72
2023/12/11 01:23:46;;;;;;;5.80;1.75;;;;;;;7.58;100.00;95927.25;4952838;28;20049;-71
2023/12/11 01:26:11;;;;;;;4.60;1.50;;;;;;;7.45;100.00;95920.41;4947262;28;20105;-71
2023/12/11 01:28:36;;;;;;;6.05;1.45;;;;;;;7.38;100.00;95939.38;4953037;28;20065;-72
2023/12/11 01:31:02;;;;;;;7.07;1.83;;;;;;;7.38;100.00;95936.66;4952077;28;20039;-73
2023/12/11 01:33:27;;;;;;;5.25;1.48;;;;;;;7.25;100.00;95942.28;4915869;28;20513;-71
2023/12/11 01:35:53;;;;;;;5.88;1.50;;;;;;;7.33;100.00;95942.41;4937977;29;20047;-71
2023/12/11 01:38:18;;;;;;;4.50;1.30;;;;;;;7.25;100.00;95936.81;4943776;28;20055;-71
2023/12/11 01:40:44;;;;;;;7.70;1.55;;;;;;;7.24;100.00;95940.72;4952935;28;20062;-70
2023/12/11 01:43:19;;;;;;;6.85;2.08;;;;;;;7.21;100.00;95938.72;4932726;28;20050;-71
2023/12/11 01:46:00;;;;;;;4.55;1.70;;;;;;;7.14;100.00;95940.53;4947680;28;20432;-71
2023/12/11 01:48:27;;;;;;;3.10;1.30;;;;;;;7.17;100.00;95937.09;4956694;28;20062;-72
2023/12/11 01:50:52;;;;;;;3.22;1.45;;;;;;;7.12;100.00;95948.28;4956341;28;20039;-71
2023/12/11 01:53:18;;;;;;;4.82;1.42;;;;;;;7.21;100.00;95957.78;4925381;28;20050;-71
2023/12/11 01:55:45;;;;;;;3.47;1.50;;;;;;;7.27;100.00;95952.81;4952261;28;20047;-71
2023/12/11 01:58:12;;;;;;;6.45;1.27;;;;;;;7.23;100.00;95936.41;4948006;28;20046;-71
2023/12/11 02:00:37;;;;;;;4.78;1.50;;;;;;;7.31;100.00;95945.50;4954682;28;20047;-71
2023/12/11 02:03:03;;;;;;;3.53;1.65;;;;;;;7.28;100.00;95938.06;4955213;28;20135;-73
2023/12/11 02:05:28;;;;;;;3.22;1.40;;;;;;;7.35;100.00;95940.13;4951284;28;20071;-72
2023/12/11 02:07:53;;;;;;;4.32;1.42;;;;;;;7.37;100.00;95924.97;4955798;28;20077;-72
2023/12/11 02:10:19;;;;;;;4.70;1.30;;;;;;;7.36;100.00;95928.84;4924941;28;20051;-72
2023/12/11 02:12:44;;;;;;;1.77;1.10;;;;;;;7.30;100.00;95932.25;4955012;28;20588;-71
2023/12/11 02:15:10;;;;;;;3.08;1.30;;;;;;;7.25;100.00;95925.94;4941831;28;20177;-72
2023/12/11 02:17:35;;;;;;;6.68;1.92;;;;;;;7.28;100.00;95936.09;4945777;28;20042;-71
2023/12/11 02:20:01;;;;;;;4.85;1.95;;;;;;;7.37;100.00;95929.63;4954831;28;20509;-70
2023/12/11 02:22:26;;;;;;;5.65;1.60;;;;;;;7.36;100.00;95928.84;4949391;28;20142;-70
2023/12/11 02:24:59;;;;;;;5.57;1.80;;;;;;;7.42;100.00;95929.34;4931799;28;20039;-70
2023/12/11 02:27:26;;;;;;;4.78;1.15;;;;;;;7.44;100.00;95929.75;4958723;28;20623;-71
2023/12/11 02:29:54;;;;;;;3.63;1.35;;;;;;;7.54;100.00;95941.97;4937088;28;20109;-71
2023/12/11 02:32:20;;;;;;;1.70;0.98;;;;;;;7.55;100.00;95927.97;4949786;28;20031;-70
2023/12/11 02:34:47;;;;;;;3.17;1.10;;;;;;;7.59;100.00;95914.41;4952865;28;20085;-72
2023/12/11 02:37:13;;;;;;;5.30;1.40;;;;;;;7.68;100.00;95925.06;4947855;28;20042;-72
2023/12/11 02:39:39;;;;;;;2.90;1.25;;;;;;;7.65;100.00;95927.38;4952963;28;20051;-70
2023/12/11 02:42:04;;;;;;;4.10;1.20;;;;;;;7.73;100.00;95920.06;4952600;28;20110;-71
2023/12/11 02:44:30;;;;;;;2.55;1.05;;;;;;;7.77;100.00;95917.41;4944673;28;20420;-70
2023/12/11 02:46:55;;;;;;;2.80;0.98;;;;;;;7.78;100.00;95917.03;4949750;28;20047;-70
2023/12/11 02:49:20;;;;;;;3.15;1.02;;;;;;;7.85;100.00;95921.81;4955244;28;20166;-70
2023/12/11 02:51:46;;;;;;;4.65;1.25;;;;;;;7.82;100.00;95931.50;4956334;28;20042;-70
2023/12/11 02:54:11;;;;;;;2.67;0.90;;;;;;;7.78;100.00;95916.25;4936206;28;20061;-70
2023/12/11 02:56:40;;;;;;;2.42;0.90;;;;;;;7.80;100.00;95922.91;4949404;28;20130;-70
2023/12/11 02:59:05;;;;;;;4.32;0.90;;;;;;;7.80;100.00;95924.84;4939349;28;20051;-70
2023/12/11 03:01:31;;;;;;;4.80;1.00;;;;;;;7.82;100.00;95928.78;4953291;28;20047;-70
2023/12/11 03:03:56;;;;;;;3.35;1.00;;;;;;;7.85;100.00;95930.00;4930861;28;20073;-70
2023/12/11 03:06:22;;;;;;;1.35;0.85;;;;;;;7.88;100.00;95926.50;4916449;29;20055;-70
2023/12/11 03:08:48;;;;;;;3.30;1.00;;;;;;;7.84;100.00;95926.47;4945800;28;20110;-70
2023/12/11 03:11:13;;;;;;;1.33;0.80;;;;;;;7.83;100.00;95927.63;4932442;28;20053;-70
2023/12/11 03:13:39;;;;;;;2.80;0.80;;;;;;;7.89;100.00;95932.78;4933633;28;20043;-70
2023/12/11 03:16:04;;;;;;;1.85;0.75;;;;;;;7.83;100.00;95929.56;4940739;28;20586;-70
2023/12/11 03:18:30;;;;;;;7.00;1.23;;;;;;;7.79;100.00;95912.38;4935937;28;20130;-69
2023/12/11 03:20:55;;;;;;;2.88;1.33;;;;;;;7.88;100.00;95914.81;4946770;28;20393;-71
2023/12/11 03:23:20;;;;;;;1.67;1.00;;;;;;;7.89;100.00;95919.13;4921783;28;20059;-71
2023/12/11 03:25:46;;;;;;;2.35;0.90;;;;;;;7.82;100.00;95922.53;4940492;28;20054;-71
2023/12/11 03:28:11;;;;;;;2.22;1.10;;;;;;;7.87;100.00;95915.97;4948332;28;20043;-71
2023/12/11 03:30:36;;;;;;;2.78;0.73;;;;;;;7.84;100.00;95912.81;4950919;28;20375;-71
2023/12/11 03:33:02;;;;;;;4.90;2.55;;;;;;;7.81;100.00;95904.59;4942624;28;20051;-71
2023/12/11 03:35:27;;;;;;;0.93;0.70;;;;;;;7.74;100.00;95908.03;4942870;28;20051;-71
2023/12/11 03:37:52;;;;;;;1.10;0.80;;;;;;;7.67;100.00;95910.66;4938019;28;20042;-70
2023/12/11 03:40:18;;;;;;;1.42;0.60;;;;;;;7.69;100.00;95911.06;4956774;28;20043;-71
2023/12/11 03:42:43;;;;;;;1.63;0.90;;;;;;;7.71;100.00;95903.31;4943374;28;20066;-71
2023/12/11 03:45:09;;;;;;;0.65;0.60;;;;;;;7.79;100.00;95912.38;4948307;28;20046;-72
2023/12/11 03:47:34;;;;;;;1.23;0.80;;;;;;;7.93;100.00;95917.25;4936207;28;20102;-71
2023/12/11 03:49:59;;;;;;;1.15;0.73;;;;;;;8.01;100.00;95916.16;4954715;28;20043;-72
2023/12/11 03:52:25;;;;;;;0.60;0.60;;;;;;;8.13;100.00;95909.72;4939251;28;20061;-71
2023/12/11 03:54:50;;;;;;;1.13;0.50;;;;;;;8.15;100.00;95921.03;4936945;28;20042;-70
2023/12/11 03:57:16;;;;;;;0.80;0.70;;;;;;;8.24;100.00;95905.94;4955132;28;20043;-71
2023/12/11 03:59:41;;;;;;;1.60;0.70;;;;;;;8.32;100.00;95901.38;4952553;28;20050;-70
2023/12/11 04:02:06;;;;;;;1.08;0.70;;;;;;;8.32;100.00;95898.66;4948083;28;20047;-71
2023/12/11 04:04:32;;;;;;;1.08;0.60;;;;;;;8.30;100.00;95887.34;4959870;28;20094;-70
2023/12/11 04:06:57;;;;;;;1.35;0.98;;;;;;;8.31;100.00;95883.44;4953926;28;20042;-70
2023/12/11 04:09:22;;;;;;;0.70;0.60;;;;;;;8.30;100.00;95872.88;4948273;28;20038;-70
2023/12/11 04:11:48;;;;;;;1.98;0.65;;;;;;;8.32;100.00;95870.56;4953387;28;20133;-70
2023/12/11 04:14:14;;;;;;;1.58;0.65;;;;;;;8.29;100.00;95868.59;4947635;28;20098;-70
2023/12/11 04:16:41;;;;;;;0.70;0.60;;;;;;;8.28;100.00;95867.03;4961642;28;20498;-71
2023/12/11 04:19:07;;;;;;;1.48;0.60;;;;;;;8.27;100.00;95870.94;4957070;28;20047;-71
2023/12/11 04:21:32;;;;;;;1.27;0.70;;;;;;;8.19;100.00;95886.41;4942577;28;20106;-71
2023/12/11 04:23:57;;;;;;;2.08;0.60;;;;;;;8.16;100.00;95863.41;4954981;28;20049;-70
2023/12/11 04:26:24;;;;;;;1.00;0.70;;;;;;;8.10;100.00;95859.41;4947210;28;20869;-71
2023/12/11 04:28:49;;;;;;;2.78;0.90;;;;;;;8.22;100.00;95872.03;4952722;28;20634;-71
2023/12/11 04:31:14;;;;;;;0.88;0.60;;;;;;;8.24;100.00;95856.06;4938731;28;20097;-71
2023/12/11 04:33:40;;;;;;;0.60;0.60;;;;;;;8.31;100.00;95863.56;4953137;28;20043;-72
2023/12/11 04:36:07;;;;;;;1.50;0.60;;;;;;;8.32;100.00;95868.66;4941398;28;20051;-71
2023/12/11 04:38:32;;;;;;;2.50;0.50;;;;;;;8.38;100.00;95864.41;4956628;28;20125;-70
2023/12/11 04:40:58;;;;;;;0.55;0.55;;;;;;;8.41;100.00;95863.69;4952547;28;20138;-70
2023/12/11 04:43:23;;;;;;;1.17;0.52;;;;;;;8.40;100.00;95867.56;4956154;28;20217;-70
2023/12/11 04:45:49;;;;;;;1.25;0.70;;;;;;;8.46;100.00;95876.22;4960367;28;20042;-71
2023/12/11 04:48:15;;;;;;;14.10;7.55;;;;;;;8.47;100.00;95886.00;4955515;28;20607;-70
2023/12/11 04:50:41;;;;;;;1.80;1.17;;;;;;;8.49;100.00;95886.41;4935405;28;20043;-71
2023/12/11 04:53:06;;;;;;;1.15;0.70;;;;;;;8.51;100.00;95880.56;4954963;28;20050;-71
2023/12/11 04:55:32;;;;;;;1.20;0.60;;;;;;;8.61;100.00;95872.50;4935303;28;20043;-69
2023/12/11 04:57:58;;;;;;;0.47;0.47;;;;;;;8.68;100.00;95885.44;4952811;28;20563;-70
2023/12/11 05:00:23;;;;;;;1.02;0.65;;;;;;;8.69;100.00;95878.81;4955518;28;20050;-70
2023/12/11 05:02:48;;;;;;;1.77;0.73;;;;;;;8.72;100.00;95880.03;4952076;28;20130;-70
2023/12/11 05:05:16;;;;;;;1.40;0.63;;;;;;;8.74;100.00;95873.03;4954590;28;20256;-70
2023/12/11 05:07:42;;;;;;;0.90;0.60;;;;;;;8.68;100.00;95895.56;4934330;28;20047;-70
2023/12/11 05:10:07;;;;;;;3.03;0.70;;;;;;;8.64;100.00;95894.75;4956022;28;20046;-70
2023/12/11 05:12:33;;;;;;;0.90;0.50;;;;;;;8.58;100.00;95889.63;4951980;28;20043;-69
2023/12/11 05:15:00;;;;;;;0.70;0.63;;;;;;;8.52;100.00;95887.63;4951822;28;20045;-71
2023/12/11 05:17:25;;;;;;;1.52;0.70;;;;;;;8.45;100.00;95869.22;4947212;28;20429;-71
2023/12/11 05:19:50;;;;;;;0.57;0.52;;;;;;;8.38;100.00;95869.09;4952050;28;20053;-71
2023/12/11 05:22:16;;;;;;;1.17;0.65;;;;;;;8.40;100.00;95866.78;4948192;28;20043;-71
2023/12/11 05:24:41;;;;;;;1.95;0.70;;;;;;;8.32;100.00;95865.13;4960812;28;20066;-71
2023/12/11 05:27:08;;;;;;;0.88;0.60;;;;;;;8.31;100.00;95875.25;4955340;28;20138;-70
2023/12/11 05:29:33;;;;;;;2.42;0.70;;;;;;;8.24;100.00;95866.97;4943360;28;20043;-71
2023/12/11 05:31:59;;;;;;;3.42;0.85;;;;;;;8.25;100.00;95868.56;4955379;28;20126;-71
2023/12/11 05:34:24;;;;;;;2.45;0.82;;;;;;;8.23;100.00;95868.94;4927638;29;20066;-70
2023/12/11 05:36:49;;;;;;;1.92;0.70;;;;;;;8.19;100.00;95872.75;4965758;28;20039;-70
2023/12/11 05:39:15;;;;;;;1.50;0.70;;;;;;;8.17;100.00;95866.91;4962229;28;20093;-71
2023/12/11 05:41:40;;;;;;;1.40;1.02;;;;;;;8.16;100.00;95868.06;4959700;28;20043;-71
2023/12/11 05:44:06;;;;;;;1.02;0.70;;;;;;;8.16;100.00;95874.31;4961676;28;20042;-70
2023/12/11 05:46:34;;;;;;;1.95;1.17;;;;;;;8.20;100.00;95860.72;4948326;28;20051;-71
2023/12/11 05:49:00;;;;;;;3.05;0.88;;;;;;;8.24;100.00;95850.63;4955773;28;20039;-70
2023/12/11 05:51:27;;;;;;;0.85;0.70;;;;;;;8.30;100.00;95840.97;4950657;28;20720;-70
2023/12/11 05:53:52;;;;;;;1.92;0.80;;;;;;;8.39;100.00;95829.72;4951121;28;20047;-71
2023/12/11 05:56:17;;;;;;;3.00;0.70;;;;;;;8.44;100.00;95837.63;4954678;28;20545;-70
2023/12/11 05:58:43;;;;;;;1.20;0.90;;;;;;;8.52;100.00;95841.22;4963798;28;20398;-70
2023/12/11 06:01:08;;;;;;;0.82;0.63;;;;;;;8.54;100.00;95853.31;4953559;28;20078;-70
2023/12/11 06:03:34;;;;;;;1.58;0.60;;;;;;;8.60;100.00;95843.63;4961331;28;20046;-70
2023/12/11 06:05:59;;;;;;;1.55;0.70;;;;;;;8.78;100.00;95852.00;4962622;28;20042;-71
2023/12/11 06:08:25;;;;;;;19.17;10.07;;;;;;;8.84;100.00;95865.31;4950386;28;20091;-71
2023/12/11 06:10:51;;;;;;;1.35;0.60;;;;;;;8.89;100.00;95862.25;4959947;28;20047;-70
2023/12/11 06:13:16;;;;;;;1.15;0.70;;;;;;;8.92;100.00;95859.53;4953695;28;20137;-72
2023/12/11 06:15:42;;;;;;;1.05;0.60;;;;;;;8.97;100.00;95856.47;4963240;28;20351;-72
2023/12/11 06:18:07;;;;;;;1.25;0.70;;;;;;;8.99;100.00;95853.38;4958721;28;20070;-73
2023/12/11 06:20:32;;;;;;;1.85;0.60;;;;;;;9.01;100.00;95831.94;4937715;28;20612;-71
2023/12/11 06:22:58;;;;;;;3.63;0.75;;;;;;;9.01;100.00;95826.47;4963527;28;20083;-71
2023/12/11 06:25:23;;;;;;;1.40;0.95;;;;;;;8.99;100.00;95826.06;4957877;28;20051;-70
2023/12/11 06:27:48;;;;;;;0.85;0.60;;;;;;;8.96;100.00;95833.03;4954580;28;20602;-71
2023/12/11 06:30:14;;;;;;;0.85;0.65;;;;;;;8.95;100.00;95803.41;4952636;28;20648;-71
2023/12/11 06:32:39;;;;;;;3.45;0.63;;;;;;;8.98;100.00;95808.09;4959549;28;20053;-72
2023/12/11 06:35:06;;;;;;;0.68;0.57;;;;;;;9.01;100.00;95823.72;4947952;28;20043;-72
2023/12/11 06:37:31;;;;;;;1.02;0.60;;;;;;;8.96;100.00;95840.47;4959055;28;20085;-72
2023/12/11 06:39:56;;;;;;;1.52;0.73;;;;;;;8.99;100.00;95836.97;4959963;28;20137;-71
2023/12/11 06:42:22;;;;;;;1.38;0.70;;;;;;;9.01;100.00;95836.59;4929725;28;20598;-72
2023/12/11 06:44:47;;;;;;;1.65;0.80;;;;;;;9.04;100.00;95827.63;4953855;28;20055;-71
2023/12/11 06:47:13;;;;;;;0.70;0.70;;;;;;;9.08;100.00;95828.47;4937494;29;20460;-71
2023/12/11 06:49:38;;;;;;;1.27;0.63;;;;;;;9.08;100.00;95829.25;4942921;28;20073;-72
2023/12/11 06:52:04;;;;;;;0.85;0.65;;;;;;;9.08;100.00;95836.66;4947261;28;20055;-72
2023/12/11 06:54:30;;;;;;;1.30;0.60;;;;;;;9.04;100.00;95842.09;4960687;28;20054;-71
2023/12/11 06:56:55;;;;;;;1.42;0.73;;;;;;;9.08;100.00;95842.91;4959122;28;20047;-72
2023/12/11 06:59:22;;;;;;;0.85;0.68;;;;;;;9.05;100.00;95851.84;4952576;28;20722;-72
2023/12/11 07:01:47;;;;;;;3.47;0.90;;;;;;;9.03;100.00;95837.78;4942549;28;20047;-71
2023/12/11 07:04:13;;;;;;;3.53;0.80;;;;;;;9.02;100.00;95836.25;4951154;28;20045;-70
2023/12/11 07:06:39;;;;;;;4.38;0.75;;;;;;;9.02;100.00;95821.78;4946988;28;20054;-71
2023/12/11 07:09:04;;;;;;;2.17;0.90;;;;;;;8.96;100.00;95827.56;4959272;28;20039;-72
2023/12/11 07:11:29;;;;;;;2.20;0.90;;;;;;;8.98;100.00;95806.16;4939172;28;20050;-71
2023/12/11 07:13:55;;;;;;;1.95;0.90;;;;;;;8.96;100.00;95813.16;4955135;28;20038;-71
2023/12/11 07:16:21;;;;;;;2.40;1.10;;;;;;;8.95;100.00;95830.72;4939575;28;20035;-70
2023/12/11 07:18:46;;;;;;;3.47;0.90;;;;;;;8.95;100.00;95823.28;4946126;28;20070;-73
2023/12/11 07:21:12;;;;;;;3.08;1.60;;;;;;;8.92;100.00;95798.69;4958163;28;20075;-71
2023/12/11 07:23:38;;;;;;;51.58;21.17;;;;;;;8.99;100.00;95793.28;4962330;28;20078;-72
2023/12/11 07:26:07;;;;;;;4.47;2.17;;;;;;;8.88;100.00;95786.97;4958494;28;20592;-72
2023/12/11 07:28:33;;;;;;;1.40;1.00;;;;;;;8.79;100.00;95801.69;4959156;28;20059;-72
2023/12/11 07:30:59;;;;;;;3.20;1.08;;;;;;;8.76;100.00;95801.66;4938631;28;20039;-71
2023/12/11 07:33:25;;;;;;;2.88;1.30;;;;;;;8.76;100.00;95804.41;4969238;28;20536;-72
2023/12/11 07:35:50;;;;;;;3.95;1.10;;;;;;;8.71;100.00;95816.44;4960789;28;20047;-72
2023/12/11 07:38:16;;;;;;;2.15;0.95;;;;;;;8.72;100.00;95793.44;4958384;28;20134;-71
2023/12/11 07:40:41;;;;;;;3.78;0.95;;;;;;;8.71;100.00;95782.91;4953045;28;20402;-71
2023/12/11 07:43:08;;;;;;;2.30;1.05;;;;;;;8.71;100.00;95780.94;4949184;28;20049;-72
2023/12/11 07:45:34;;;;;;;2.97;1.00;;;;;;;8.69;100.00;95764.16;4953757;28;20145;-69
2023/12/11 07:47:59;;;;;;;2.28;1.25;;;;;;;8.71;100.00;95759.09;4936326;28;20055;-69
2023/12/11 07:50:24;;;;;;;6.10;1.10;;;;;;;8.72;100.00;95755.22;4956480;28;20055;-69
2023/12/11 07:52:50;;;;;;;3.47;1.60;;;;;;;8.75;100.00;95764.59;4962188;28;20057;-69
2023/12/11 07:55:15;;;;;;;2.92;1.13;;;;;;;8.74;100.00;95765.78;4955320;28;20405;-69
2023/12/11 07:57:41;;;;;;;2.20;1.00;;;;;;;8.75;100.00;95762.66;4952145;28;20043;-69
2023/12/11 08:00:07;;;;;;;1.60;1.00;;;;;;;8.76;100.00;95769.69;4938758;28;20043;-69
2023/12/11 08:02:34;;;;;;;1.55;1.00;;;;;;;8.75;100.00;95764.59;4944297;28;20050;-69
2023/12/11 08:05:00;;;;;;;4.63;1.08;;;;;;;8.73;100.00;95765.00;4946516;28;20053;-70
2023/12/11 08:07:26;;;;;;;1.67;1.17;;;;;;;8.86;100.00;95765.50;4947558;28;20055;-69
2023/12/11 08:09:52;;;;;;;5.00;1.20;;;;;;;8.80;100.00;95792.38;4935278;28;20164;-69
2023/12/11 08:12:17;;;;;;;1.08;0.80;;;;;;;8.78;100.00;95788.41;4948149;28;20505;-69
2023/12/11 08:14:43;;;;;;;1.00;0.90;;;;;;;8.83;100.00;95799.00;4959095;28;20070;-68
2023/12/11 08:17:08;;;;;;;2.35;1.13;;;;;;;8.84;100.00;95802.50;4932733;28;20034;-69
2023/12/11 08:19:33;;;;;;;2.30;1.13;;;;;;;8.77;100.00;95809.50;4960268;28;20050;-68
2023/12/11 08:21:59;;;;;;;3.72;1.10;;;;;;;8.71;100.00;95824.63;4961059;28;20042;-68
2023/12/11 08:24:24;;;;;;;3.33;1.02;;;;;;;8.74;100.00;95823.88;4938063;28;20074;-69
2023/12/11 08:26:50;;;;;;;2.20;0.80;;;;;;;8.76;100.00;95834.44;4953047;28;20552;-69
2023/12/11 08:29:16;;;;;;;1.85;1.00;;;;;;;8.76;100.00;95835.22;4942760;28;20057;-67
2023/12/11 08:31:42;;;;;;;2.00;0.98;;;;;;;8.76;100.00;95828.97;4958711;28;20042;-69
2023/12/11 08:34:07;;;;;;;4.45;1.15;;;;;;;8.80;100.00;95827.84;4950815;28;20043;-69
2023/12/11 08:36:33;;;;;;;2.90;0.90;;;;;;;8.79;100.00;95839.94;4957580;28;20039;-69
2023/12/11 08:38:58;;;;;;;4.55;1.00;;;;;;;8.80;100.00;95833.31;4986168;23;20129;-72
2023/12/11 08:41:23;;;;;;;2.22;1.10;;;;;;;8.82;100.00;95829.41;4995900;28;20637;-72
2023/12/11 08:43:49;;;;;;;1.45;1.05;;;;;;;8.84;100.00;95832.53;5015302;28;20057;-71
2023/12/11 08:46:14;;;;;;;2.92;1.63;;;;;;;8.82;100.00;95843.84;4994852;28;20037;-73
2023/12/11 08:48:39;;;;;;;6.78;1.65;;;;;;;8.86;100.00;95846.59;4999933;28;20136;-73
2023/12/11 08:51:05;;;;;;;3.33;1.50;;;;;;;8.88;100.00;95845.09;4995799;28;20597;-68
2023/12/11 08:53:31;;;;;;;7.75;1.73;;;;;;;8.87;100.00;95837.25;5001529;28;20743;-73
2023/12/11 08:55:56;;;;;;;2.92;1.30;;;;;;;8.94;100.00;95838.09;5000010;28;20353;-73
2023/12/11 08:58:23;;;;;;;2.70;1.45;;;;;;;8.95;100.00;95836.94;4994920;28;20077;-72
2023/12/11 09:00:49;;;;;;;3.58;2.00;;;;;;;8.94;100.00;95834.59;4998357;28;20128;-73
2023/12/11 09:03:15;;;;;;;9.82;5.63;;;;;;;8.98;100.00;95827.22;4979746;28;20129;-73
2023/12/11 09:05:41;;;;;;;3.42;1.58;;;;;;;8.93;100.00;95825.63;4999898;28;20050;-71
2023/12/11 09:08:06;;;;;;;2.95;1.92;;;;;;;8.95;100.00;95828.75;4997506;28;20057;-71
2023/12/11 09:10:32;;;;;;;3.20;1.23;;;;;;;9.00;100.00;95844.00;4998828;28;20133;-73
2023/12/11 09:12:57;;;;;;;2.78;1.35;;;;;;;9.01;100.00;95844.81;5000497;28;20073;-74
2023/12/11 09:15:22;;;;;;;2.78;1.40;;;;;;;9.24;100.00;95852.78;4996541;28;20504;-72
2023/12/11 09:17:48;;;;;;;2.15;1.23;;;;;;;9.06;100.00;95861.63;5000988;28;20046;-72
2023/12/11 09:20:13;;;;;;;3.17;1.45;;;;;;;9.19;100.00;95879.28;4996576;28;20590;-72
2023/12/11 09:22:43;;;;;;;4.35;1.33;;;;;;;9.11;100.00;95874.94;5008435;28;20511;-72
2023/12/11 09:25:08;;;;;;;4.70;2.25;;;;;;;9.08;100.00;95875.69;5002086;28;20038;-71
2023/12/11 09:27:34;;;;;;;8.55;1.73;;;;;;;8.99;100.00;95881.47;5003711;28;20050;-71
2023/12/11 09:29:59;;;;;;;5.18;1.17;;;;;;;9.06;100.00;95890.91;5023570;28;20049;-70
2023/12/11 09:32:25;;;;;;;4.90;1.20;;;;;;;8.96;100.00;95901.31;5004108;28;20054;-72
2023/12/11 09:34:51;;;;;;;4.13;1.13;;;;;;;8.88;100.00;95910.63;5001440;28;20080;-69
2023/12/11 09:37:19;;;;;;;2.20;1.33;;;;;;;8.80;100.00;95912.50;4993451;28;20123;-72
2023/12/11 09:39:46;;;;;;;2.28;1.00;;;;;;;8.84;100.00;95911.72;5000617;28;20060;-72
2023/12/11 09:42:13;;;;;;;6.35;1.40;;;;;;;8.85;100.00;95905.13;4996546;28;20042;-73
2023/12/11 09:44:40;;;;;;;1.52;0.93;;;;;;;8.84;100.00;95881.69;4981770;28;20066;-69
2023/12/11 09:47:10;;;;;;;1.52;0.70;;;;;;;8.88;100.00;95857.97;4995689;28;20053;-71
2023/12/11 09:49:36;;;;;;;2.45;1.00;;;;;;;8.91;100.00;95868.91;5000847;28;20054;-73
2023/12/11 09:52:02;;;;;;;2.90;1.00;;;;;;;8.93;100.00;95871.25;4999060;28;20053;-72
2023/12/11 09:54:27;;;;;;;3.95;0.95;;;;;;;8.96;100.00;95865.03;5009723;28;20046;-71
2023/12/11 09:56:53;;;;;;;1.15;0.80;;;;;;;8.98;100.00;95857.25;4999493;28;20050;-71
2023/12/11 09:59:20;;;;;;;2.63;0.80;;;;;;;8.93;100.00;95866.59;4994911;28;20038;-71
2023/12/11 10:01:47;;;;;;;2.08;0.90;;;;;;;8.87;100.00;95870.03;4998672;28;20041;-70
2023/12/11 10:04:13;;;;;;;4.90;1.60;;;;;;;8.94;100.00;95867.38;4995938;28;20042;-72
2023/12/11 10:06:38;;;;;;;0.75;0.60;;;;;;;8.99;100.00;95873.25;4998657;28;20485;-70
2023/12/11 10:09:04;;;;;;;5.68;1.02;;;;;;;9.01;100.00;95881.09;4987997;28;20048;-70
2023/12/11 10:11:30;;;;;;;1.95;0.90;;;;;;;8.83;100.00;95875.47;5005819;28;20513;-71
2023/12/11 10:14:10;;;;;;;2.38;1.00;;;;;;;8.80;100.00;95878.94;4999135;28;20042;-70
2023/12/11 10:16:36;;;;;;;2.85;0.90;;;;;;;8.83;100.00;95875.47;4990630;28;20046;-70
2023/12/11 10:19:02;;;;;;;2.50;0.70;;;;;;;8.94;100.00;95875.56;4993404;28;20895;-68
2023/12/11 10:21:40;;;;;;;2.33;0.80;;;;;;;8.94;100.00;95879.06;5000260;28;20130;-74
2023/12/11 10:24:14;;;;;;;1.63;0.80;;;;;;;9.02;100.00;95885.41;4999165;28;20053;-71
2023/12/11 10:26:54;;;;;;;1.13;0.77;;;;;;;9.03;100.00;95873.31;5002917;28;20691;-72
2023/12/11 10:29:21;;;;;;;;;;;;;;;9.03;100.00;95864.31;4999218;28;20042;-71
2023/12/11 10:31:46;;;;;;;2.45;1.33;;;;;;;8.97;100.00;95872.84;5003173;28;19917;-71
2023/12/11 10:34:12;;;;;;;2.40;0.90;;;;;;;8.93;100.00;95850.19;4998569;28;20034;-72
2023/12/11 10:36:51;;;;;;;5.30;1.00;;;;;;;8.97;100.00;95858.44;4995672;28;20058;-71
2023/12/11 10:39:19;;;;;;;1.65;1.05;;;;;;;8.99;100.00;95872.50;4998052;28;20439;-70
2023/12/11 10:41:45;;;;;;;4.30;1.23;;;;;;;9.02;100.00;95860.00;4984755;28;20132;-71
2023/12/11 10:44:26;;;;;;;2.53;1.08;;;;;;;9.02;100.00;95863.56;4999131;28;20465;-70
2023/12/11 10:46:54;;;;;;;2.55;0.98;;;;;;;9.12;100.00;95865.56;5001833;28;20578;-69
2023/12/11 10:49:22;;;;;;;4.45;1.20;;;;;;;8.99;100.00;95856.09;4990224;28;20109;-71
2023/12/11 10:51:48;;;;;;;1.48;0.90;;;;;;;9.04;100.00;95850.28;4993265;28;20046;-73
2023/12/11 10:54:13;;;;;;;2.85;1.20;;;;;;;8.96;100.00;95857.63;4979925;28;20060;-72
2023/12/11 10:56:43;;;;;;;3.33;0.90;;;;;;;8.98;100.00;95844.41;4984470;28;20784;-73
2023/12/11 10:59:11;;;;;;;1.95;0.80;;;;;;;9.05;100.00;95848.34;4979996;28;20116;-69
2023/12/11 11:01:38;;;;;;;3.00;1.08;;;;;;;8.90;100.00;95852.91;4984288;28;20043;-70
2023/12/11 11:04:07;;;;;;;1.50;0.90;;;;;;;8.95;100.00;95855.28;4980318;28;20034;-69
2023/12/11 11:06:38;;;;;;;3.92;0.95;;;;;;;8.96;100.00;95856.84;4984745;28;20046;-71
2023/12/11 11:09:10;;;;;;;2.30;0.93;;;;;;;8.83;100.00;95867.25;4980285;28;20043;-68
2023/12/11 11:11:43;;;;;;;3.90;0.77;;;;;;;8.82;100.00;95862.19;4980869;28;20077;-72
2023/12/11 11:14:17;;;;;;;2.97;0.90;;;;;;;8.86;100.00;95865.72;4981845;28;20049;-73
2023/12/11 11:16:56;;;;;;;2.55;0.82;;;;;;;8.73;100.00;95855.09;4990617;28;20085;-71
2023/12/11 11:19:22;;;;;;;1.25;0.90;;;;;;;8.72;100.00;95867.16;4983535;28;20570;-73
2023/12/11 11:22:08;;;;;;;1.48;0.73;;;;;;;8.89;100.00;95857.56;4984779;28;20046;-72
2023/12/11 11:24:35;;;;;;;1.10;0.70;;;;;;;8.93;100.00;95844.75;4982819;28;20083;-73
2023/12/11 11:27:02;;;;;;;1.75;0.98;;;;;;;8.96;100.00;95843.97;4984503;28;20077;-72
2023/12/11 11:29:47;;;;;;;1.70;0.63;;;;;;;9.03;100.00;95839.75;4979476;28;20072;-72